Time;durP1;ratioP1;P1;durP2;ratioP2;P2;SDS_P1;SDS_P2;PMS_P1;PMS_P2;Temp;Humidity;BMP_temperature;BMP_pressure;BME280_temperature;BME280_humidity;BME280_pressure;Samples;Min_cycle;Max_cycle;Signal;HPM_P1;HPM_P2
2023/05/15 00:00:51;;;;;;;;;;;;;;;14.04;100.00;98556.84;4184396;34;33082;-93
2023/05/15 00:03:36;;;;;;;;;;;;;;;13.90;100.00;98559.13;4176335;34;35070;-93
2023/05/15 00:06:10;;;;;;;;;;;;;;;13.88;100.00;98558.31;4195956;34;34252;-94
2023/05/15 00:08:40;;;;;;;;;;;;;;;13.90;100.00;98549.50;4197610;34;33989;-93
2023/05/15 00:11:08;;;;;;;;;;;;;;;13.87;100.00;98554.88;4184200;34;35439;-93
2023/05/15 00:13:43;;;;;;;;;;;;;;;14.03;100.00;98563.00;4185038;34;35375;-93
2023/05/15 00:16:28;;;;;;;;;;;;;;;13.84;100.00;98563.66;4197090;34;33448;-93
2023/05/15 00:19:02;;;;;;;;;;;;;;;14.22;100.00;98569.25;4197917;34;34380;-95
2023/05/15 00:22:07;;;;;;;;;;;;;;;14.35;100.00;98579.25;4197847;34;35309;-93
2023/05/15 00:24:36;;;;;;;;;;;;;;;14.38;100.00;98584.34;4200743;34;36003;-94
2023/05/15 00:27:03;;;;;;;;;;;;;;;14.41;100.00;98587.72;4201180;34;33530;-93
2023/05/15 00:29:45;;;;;;;;;;;;;;;14.20;100.00;98580.69;4180213;34;35178;-93
2023/05/15 00:32:13;;;;;;;;;;;;;;;14.29;100.00;98579.47;4190791;28;35430;-93
2023/05/15 00:34:43;;;;;;;;;;;;;;;14.34;100.00;98577.53;4171510;28;34731;-92
2023/05/15 00:37:12;;;;;;;;;;;;;;;14.27;100.00;98576.06;4179740;28;34077;-94
2023/05/15 00:39:41;;;;;;;;;;;;;;;14.52;100.00;98571.56;4177122;34;34200;-93
2023/05/15 00:42:10;;;;;;;;;;;;;;;14.44;100.00;98573.66;4204268;28;35768;-92
2023/05/15 00:44:38;;;;;;;;;;;;;;;14.20;100.00;98565.81;4194653;28;35346;-92
2023/05/15 00:47:27;;;;;;;;;;;;;;;14.22;100.00;98564.00;4170620;28;32085;-93
2023/05/15 00:49:55;;;;;;;;;;;;;;;14.31;100.00;98562.81;4156268;29;33029;-92
2023/05/15 00:52:31;;;;;;;;;;;;;;;14.58;100.00;98563.53;4171923;28;34991;-92
2023/05/15 00:55:26;;;;;;;;;;;;;;;14.32;100.00;98558.41;4183913;28;34825;-93
2023/05/15 00:57:58;;;;;;;;;;;;;;;14.28;100.00;98549.81;4178557;28;34691;-91
2023/05/15 01:00:42;;;;;;;;;;;;;;;14.37;100.00;98546.00;4166594;28;33807;-93
2023/05/15 01:03:13;;;;;;;;;;;;;;;14.09;100.00;98547.06;4169999;28;35292;-93
2023/05/15 01:05:45;;;;;;;;;;;;;;;14.28;100.00;98536.72;4187281;34;34339;-92
2023/05/15 01:08:32;;;;;;;;;;;;;;;14.49;100.00;98529.81;4199223;28;33711;-94
2023/05/15 01:11:04;;;;;;;;;;;;;;;14.48;100.00;98519.38;4203053;28;35049;-94
2023/05/15 01:13:32;;;;;;;;;;;;;;;14.45;100.00;98520.34;4183185;28;36007;-93
2023/05/15 01:16:12;;;;;;;;;;;;;;;14.56;98.61;98520.78;4176974;34;35999;-92
2023/05/15 01:18:45;;;;;;;;;;;;;;;14.30;100.00;98518.34;4188009;34;34274;-93
2023/05/15 01:21:13;;;;;;;;;;;;;;;14.46;100.00;98518.59;4187634;34;35519;-92
2023/05/15 01:24:00;;;;;;;;;;;;;;;14.49;100.00;98501.00;4187867;34;36006;-93
2023/05/15 01:27:08;;;;;;;;;;;;;;;14.39;100.00;98494.41;4201456;28;34679;-92
2023/05/15 01:29:55;;;;;;;;;;;;;;;14.09;100.00;98493.84;4204582;28;34642;-93
2023/05/15 01:32:30;;;;;;;;;;;;;;;14.41;100.00;98505.66;4202542;28;34175;-94
2023/05/15 01:35:13;;;;;;;;;;;;;;;14.42;100.00;98512.63;4178641;34;35573;-93
2023/05/15 01:37:50;;;;;;;;;;;;;;;14.74;97.11;98515.75;4200900;34;34731;-93
2023/05/15 01:40:24;;;;;;;;;;;;;;;14.14;100.00;98492.75;4187743;34;33287;-93
2023/05/15 01:43:00;;;;;;;;;;;;;;;14.05;100.00;98503.59;4188207;28;34724;-94
2023/05/15 01:45:28;;;;;;;;;;;;;;;14.26;100.00;98515.00;4181258;28;34917;-95
2023/05/15 01:47:59;;;;;;;;;;;;;;;14.02;100.00;98512.41;4179023;34;35206;-96
2023/05/15 01:50:30;;;;;;;;;;;;;;;14.07;100.00;98507.00;4184915;34;33081;-93
2023/05/15 01:52:59;;;;;;;;;;;;;;;14.43;100.00;98509.06;4176196;34;34633;-93
2023/05/15 01:55:41;;;;;;;;;;;;;;;14.03;100.00;98513.28;4186962;34;35070;-93
2023/05/15 01:58:12;;;;;;;;;;;;;;;14.37;100.00;98494.47;4187573;34;34784;-93
2023/05/15 02:00:40;;;;;;;;;;;;;;;14.44;100.00;98508.19;4187383;34;33618;-94
2023/05/15 02:03:18;;;;;;;;;;;;;;;14.08;100.00;98519.16;4192003;28;34208;-93
2023/05/15 02:05:47;;;;;;;;;;;;;;;14.19;100.00;98524.00;4169663;28;35702;-92
2023/05/15 02:08:19;;;;;;;;;;;;;;;14.01;100.00;98517.69;4171685;34;34421;-95
2023/05/15 02:10:48;;;;;;;;;;;;;;;14.20;100.00;98528.31;4179151;28;33346;-96
2023/05/15 02:13:20;;;;;;;;;;;;;;;14.04;100.00;98530.66;4165490;34;34260;-96
2023/05/15 02:15:51;;;;;;;;;;;;;;;14.21;100.00;98540.50;4185564;34;34879;-94
2023/05/15 02:18:20;;;;;;;;;;;;;;;14.64;98.62;98558.97;4174696;34;35990;-94
2023/05/15 02:20:48;;;;;;;;;;;;;;;14.42;100.00;98557.16;4187499;34;33796;-94
2023/05/15 02:23:19;;;;;;;;;;;;;;;14.21;100.00;98557.06;4186681;34;34816;-93
2023/05/15 02:26:08;;;;;;;;;;;;;;;13.96;100.00;98558.88;4187048;34;35030;-96
2023/05/15 02:28:56;;;;;;;;;;;;;;;14.14;100.00;98568.69;4187488;34;35474;-95
2023/05/15 02:31:45;;;;;;;;;;;;;;;14.24;100.00;98566.53;4185944;34;33441;-95
2023/05/15 02:34:17;;;;;;;;;;;;;;;14.02;100.00;98567.37;4196770;28;34276;-94
2023/05/15 02:36:47;;;;;;;;;;;;;;;14.00;100.00;98560.50;4199150;34;35415;-94
2023/05/15 02:39:16;;;;;;;;;;;;;;;14.03;100.00;98548.16;4200000;34;34055;-94
2023/05/15 02:41:48;;;;;;;;;;;;;;;13.83;100.00;98541.00;4188327;34;34027;-94
2023/05/15 02:44:16;;;;;;;;;;;;;;;13.96;100.00;98545.78;4188765;34;34384;-93
2023/05/15 02:46:44;;;;;;;;;;;;;;;13.84;100.00;98536.66;4188117;34;35293;-93
2023/05/15 02:49:14;;;;;;;;;;;;;;;13.94;100.00;98539.75;4200899;34;35615;-93
2023/05/15 02:51:42;;;;;;;;;;;;;;;14.22;100.00;98543.06;4201714;34;33497;-94
2023/05/15 02:54:10;;;;;;;;;;;;;;;13.95;100.00;98539.72;4200756;34;34021;-93
2023/05/15 02:56:39;;;;;;;;;;;;;;;13.99;100.00;98535.22;4178929;34;35307;-93
2023/05/15 02:59:07;;;;;;;;;;;;;;;14.04;100.00;98528.88;4187670;28;33160;-94
2023/05/15 03:01:36;;;;;;;;;;;;;;;14.03;100.00;98523.75;4176473;34;34386;-93
2023/05/15 03:04:08;;;;;;;;;;;;;;;14.27;100.00;98523.69;4153688;34;35581;-96
2023/05/15 03:06:36;;;;;;;;;;;;;;;14.08;100.00;98523.53;4188500;34;35319;-95
2023/05/15 03:09:05;;;;;;;;;;;;;;;13.87;100.00;98513.00;4203735;28;35037;-94
2023/05/15 03:11:33;;;;;;;;;;;;;;;14.34;100.00;98509.44;4179122;34;33460;-94
2023/05/15 03:14:01;;;;;;;;;;;;;;;14.28;100.00;98505.31;4200695;34;34736;-93
2023/05/15 03:16:29;;;;;;;;;;;;;;;14.45;100.00;98491.53;4177657;28;35814;-93
2023/05/15 03:19:15;;;;;;;;;;;;;;;14.21;100.00;98481.12;4168986;34;35088;-95
2023/05/15 03:21:46;;;;;;;;;;;;;;;13.86;100.00;98487.72;4196101;28;33542;-92
2023/05/15 03:24:15;;;;;;;;;;;;;;;14.10;100.00;98493.78;4178338;34;34126;-93
2023/05/15 03:26:49;;;;;;;;;;;;;;;14.06;100.00;98481.72;4206088;28;35435;-94
2023/05/15 03:29:18;;;;;;;;;;;;;;;14.27;100.00;98473.94;4177652;34;34800;-93
2023/05/15 03:31:52;;;;;;;;;;;;;;;14.17;100.00;98471.69;4200816;34;33655;-93
2023/05/15 03:34:20;;;;;;;;;;;;;;;14.24;100.00;98472.28;4199745;34;34938;-92
2023/05/15 03:36:48;;;;;;;;;;;;;;;14.13;100.00;98480.56;4183556;28;35541;-95
2023/05/15 03:39:16;;;;;;;;;;;;;;;14.09;100.00;98478.16;4180360;28;34662;-96
2023/05/15 03:41:44;;;;;;;;;;;;;;;14.04;100.00;98470.47;4177021;28;33508;-94
2023/05/15 03:44:15;;;;;;;;;;;;;;;14.08;100.00;98474.66;4164487;28;34356;-93
2023/05/15 03:46:52;;;;;;;;;;;;;;;13.99;100.00;98478.50;4168064;28;35505;-94
2023/05/15 03:49:21;;;;;;;;;;;;;;;14.05;100.00;98469.56;4168913;28;34894;-93
2023/05/15 03:51:49;;;;;;;;;;;;;;;13.94;100.00;98464.75;4187328;34;33359;-93
2023/05/15 03:54:37;;;;;;;;;;;;;;;13.98;100.00;98470.72;4199385;34;33918;-93
2023/05/15 03:57:40;;;;;;;;;;;;;;;13.97;100.00;98474.22;4189367;34;35338;-94
2023/05/15 04:00:15;;;;;;;;;;;;;;;13.94;100.00;98464.75;4198624;34;35272;-93
2023/05/15 04:02:52;;;;;;;;;;;;;;;13.98;100.00;98455.84;4199544;34;33907;-93
2023/05/15 04:05:26;;;;;;;;;;;;;;;13.84;100.00;98440.69;4202978;28;34075;-94
2023/05/15 04:08:04;;;;;;;;;;;;;;;13.96;100.00;98441.09;4197914;34;36502;-93
2023/05/15 04:10:46;;;;;;;;;;;;;;;14.21;100.00;98452.31;4198905;34;34797;-93
2023/05/15 04:13:36;;;;;;;;;;;;;;;14.23;100.00;98449.66;4190381;34;33666;-93
2023/05/15 04:16:06;;;;;;;;;;;;;;;14.19;100.00;98435.81;4207177;28;34935;-93
2023/05/15 04:18:34;;;;;;;;;;;;;;;13.98;100.00;98428.84;4180718;28;35701;-94
2023/05/15 04:21:05;;;;;;;;;;;;;;;13.91;100.00;98436.06;4168452;28;34678;-93
2023/05/15 04:23:40;;;;;;;;;;;;;;;14.11;100.00;98444.91;4183460;34;33285;-93
2023/05/15 04:26:33;;;;;;;;;;;;;;;14.16;100.00;98437.72;4178895;34;33748;-93
2023/05/15 04:29:02;;;;;;;;;;;;;;;14.17;100.00;98449.88;4196195;28;35238;-92
2023/05/15 04:31:43;;;;;;;;;;;;;;;14.46;100.00;98459.19;4164040;29;32314;-93
2023/05/15 04:34:23;;;;;;;;;;;;;;;14.27;100.00;98466.94;4177380;34;33670;-93
2023/05/15 04:36:51;;;;;;;;;;;;;;;14.15;100.00;98475.28;4177668;34;34456;-94
2023/05/15 04:39:19;;;;;;;;;;;;;;;14.07;100.00;98485.22;4184176;28;35375;-93
2023/05/15 04:41:47;;;;;;;;;;;;;;;14.30;100.00;98486.94;4177904;28;34775;-93
2023/05/15 04:44:19;;;;;;;;;;;;;;;14.20;100.00;98482.03;4164490;34;33974;-94
2023/05/15 04:46:54;;;;;;;;;;;;;;;14.34;100.00;98491.97;4187029;34;35272;-93
2023/05/15 04:49:29;;;;;;;;;;;;;;;14.39;100.00;98492.63;4202694;28;35523;-93
2023/05/15 04:52:00;;;;;;;;;;;;;;;14.29;100.00;98501.75;4183835;28;34434;-93
2023/05/15 04:54:31;;;;;;;;;;;;;;;14.52;100.00;98511.31;4180697;34;32185;-95
2023/05/15 04:57:00;;;;;;;;;;;;;;;14.49;100.00;98516.72;4207098;28;34116;-94
2023/05/15 04:59:27;;;;;;;;;;;;;;;14.36;100.00;98520.72;4181667;34;33923;-94
2023/05/15 05:01:55;;;;;;;;;;;;;;;14.48;100.00;98522.84;4193184;34;34118;-92
2023/05/15 05:04:45;;;;;;;;;;;;;;;14.48;100.00;98517.59;4204609;34;33717;-93
2023/05/15 05:07:13;;;;;;;;;;;;;;;14.40;100.00;98512.69;4204156;34;34240;-93
2023/05/15 05:09:41;;;;;;;;;;;;;;;14.51;100.00;98516.66;4192906;34;34973;-93
2023/05/15 05:12:40;;;;;;;;;;;;;;;14.54;100.00;98516.50;4165460;34;34307;-93
2023/05/15 05:15:14;;;;;;;;;;;;;;;14.69;100.00;98525.56;4194632;28;33907;-93
2023/05/15 05:17:42;;;;;;;;;;;;;;;14.55;100.00;98529.53;4179901;28;34997;-93
2023/05/15 05:20:10;;;;;;;;;;;;;;;14.43;100.00;98530.03;4174238;28;35277;-93
2023/05/15 05:22:41;;;;;;;;;;;;;;;14.83;100.00;98533.72;4179264;34;34688;-93
2023/05/15 05:25:29;;;;;;;;;;;;;;;14.96;100.00;98540.16;4190456;34;33917;-93
2023/05/15 05:27:57;;;;;;;;;;;;;;;14.75;100.00;98530.53;4190430;34;34257;-93
2023/05/15 05:30:25;;;;;;;;;;;;;;;14.74;100.00;98531.47;4196617;28;36129;-93
2023/05/15 05:32:55;;;;;;;;;;;;;;;14.53;100.00;98520.91;4182424;28;34771;31
2023/05/15 05:35:23;;;;;;;;;;;;;;;14.75;100.00;98520.06;4174108;28;34034;-94
2023/05/15 05:37:53;;;;;;;;;;;;;;;14.88;100.00;98513.41;4193527;28;34286;-92
2023/05/15 05:40:25;;;;;;;;;;;;;;;14.97;100.00;98509.56;4202190;34;35289;-92
2023/05/15 05:42:59;;;;;;;;;;;;;;;15.26;100.00;98508.28;4209220;28;34719;-94
2023/05/15 05:45:31;;;;;;;;;;;;;;;15.17;100.00;98517.41;4174319;29;32072;-94
2023/05/15 05:48:12;;;;;;;;;;;;;;;15.06;100.00;98522.25;4184618;28;34649;-93
2023/05/15 05:50:41;;;;;;;;;;;;;;;15.21;100.00;98520.75;4168370;34;34837;-93
2023/05/15 05:53:09;;;;;;;;;;;;;;;15.36;100.00;98525.34;4179308;34;35467;-93
2023/05/15 05:55:38;;;;;;;;;;;;;;;15.45;100.00;98526.72;4188515;34;33471;-93
2023/05/15 05:58:07;;;;;;;;;;;;;;;15.43;100.00;98530.34;4174503;34;33864;-93
2023/05/15 06:00:51;;;;;;;;;;;;;;;15.47;100.00;98534.53;4189661;34;35804;-93
2023/05/15 06:03:21;;;;;;;;;;;;;;;15.43;100.00;98527.72;4179146;34;34802;-93
2023/05/15 06:05:49;;;;;;;;;;;;;;;15.75;100.00;98522.84;4194065;28;34252;-93
2023/05/15 06:08:32;;;;;;;;;;;;;;;16.33;100.00;98535.06;4177952;28;34530;-93
2023/05/15 06:11:00;;;;;;;;;;;;;;;16.76;97.42;98533.84;4183816;28;209206;-92
2023/05/15 06:13:33;;;;;;;;;;;;;;;16.49;96.92;98542.12;4190591;28;33300;-91
2023/05/15 06:16:12;;;;;;;;;;;;;;;16.76;95.96;98544.34;4171226;28;33765;31
2023/05/15 06:18:40;;;;;;;;;;;;;;;16.52;94.72;98535.00;4192419;28;35239;-93
2023/05/15 06:21:08;;;;;;;;;;;;;;;16.51;94.71;98536.81;4177154;34;34925;-93
2023/05/15 06:23:50;;;;;;;;;;;;;;;16.59;94.43;98546.94;4188854;34;34650;-92
2023/05/15 06:26:20;;;;;;;;;;;;;;;16.51;93.59;98549.09;4188992;34;33346;-93
2023/05/15 06:29:03;;;;;;;;;;;;;;;16.19;96.10;98554.09;4188745;34;34075;-92
2023/05/15 06:31:33;;;;;;;;;;;;;;;16.27;94.27;98537.06;4194158;28;34876;-92
2023/05/15 06:34:01;;;;;;;;;;;;;;;16.14;95.94;98550.81;4201197;34;35001;-92
2023/05/15 06:36:30;;;;;;;;;;;;;;;16.68;92.64;98554.41;4204583;28;34606;-93
2023/05/15 06:39:10;;;;;;;;;;;;;;;16.94;89.17;98547.03;4177499;28;35517;-93
2023/05/15 06:41:41;;;;;;;;;;;;;;;16.42;93.52;98543.34;4177674;34;35297;-92
2023/05/15 06:44:31;;;;;;;;;;;;;;;16.38;95.50;98539.19;4208843;28;34408;-92
2023/05/15 06:47:23;;;;;;;;;;;;;;;16.47;95.60;98532.63;4192754;28;32436;-92
2023/05/15 06:50:10;;;;;;;;;;;;;;;16.43;93.30;98537.19;4191759;34;34872;-93
2023/05/15 06:53:01;;;;;;;;;;;;;;;16.20;94.06;98533.00;4203794;34;35321;-92
2023/05/15 06:55:29;;;;;;;;;;;;;;;16.26;93.85;98530.09;4204147;34;35162;-92
2023/05/15 06:58:07;;;;;;;;;;;;;;;16.47;93.48;98524.75;4185115;28;33496;-92
2023/05/15 07:00:35;;;;;;;;;;;;;;;16.45;91.82;98529.22;4167503;34;34037;-92
2023/05/15 07:03:03;;;;;;;;;;;;;;;16.74;89.15;98534.84;4205151;28;34999;-92
2023/05/15 07:05:31;;;;;;;;;;;;;;;16.81;91.34;98546.75;4196104;28;34378;-92
2023/05/15 07:07:59;;;;;;;;;;;;;;;16.59;92.40;98541.69;4192203;34;33653;-92
2023/05/15 07:10:27;;;;;;;;;;;;;;;17.11;91.62;98543.56;4203161;34;34954;-93
2023/05/15 07:12:55;;;;;;;;;;;;;;;17.35;89.74;98544.13;4180870;34;34219;-92
2023/05/15 07:15:26;;;;;;;;;;;;;;;17.57;86.13;98552.59;4191891;34;35919;-92
2023/05/15 07:17:57;;;;;;;;;;;;;;;17.65;86.05;98556.59;4203578;34;33307;-92
2023/05/15 07:20:33;;;;;;;;;;;;;;;17.66;85.52;98560.94;4207088;28;34012;-94
2023/05/15 07:23:09;;;;;;;;;;;;;;;17.28;87.77;98572.53;4172278;28;35020;-92
2023/05/15 07:25:37;;;;;;;;;;;;;;;17.21;86.86;98577.22;4181371;28;34614;-93
2023/05/15 07:28:05;;;;;;;;;;;;;;;17.36;86.08;98582.66;4189918;28;33457;-91
2023/05/15 07:30:33;;;;;;;;;;;;;;;17.77;84.39;98588.44;4179619;34;33907;-92
2023/05/15 07:33:12;;;;;;;;;;;;;;;17.80;86.06;98576.88;4204211;28;36119;-93
2023/05/15 07:35:39;;;;;;;;;;;;;;;17.47;84.50;98568.94;4179918;34;34691;-94
2023/05/15 07:38:08;;;;;;;;;;;;;;;17.30;86.14;98564.56;4205562;28;33323;-92
2023/05/15 07:40:36;;;;;;;;;;;;;;;17.45;81.68;98558.47;4175459;34;34608;-92
2023/05/15 07:43:14;;;;;;;;;;;;;;;16.98;84.76;98559.13;4177133;34;36403;-92
2023/05/15 07:46:06;;;;;;;;;;;;;;;17.05;85.76;98560.53;4199077;34;34589;-92
2023/05/15 07:49:00;;;;;;;;;;;;;;;16.81;87.41;98555.50;4198784;34;34372;-92
2023/05/15 07:51:30;;;;;;;;;;;;;;;17.02;86.11;98560.66;4198851;34;34249;-92
2023/05/15 07:54:30;;;;;;;;;;;;;;;16.50;90.10;98548.25;4190454;34;35275;-92
2023/05/15 07:57:06;;;;;;;;;;;;;;;16.74;89.16;98550.63;4199539;34;34772;-92
2023/05/15 07:59:37;;;;;;;;;;;;;;;16.93;89.07;98558.50;4203230;34;34115;-92
2023/05/15 08:02:05;;;;;;;;;;;;;;;16.93;87.99;98569.84;4209051;28;34233;-92
2023/05/15 08:04:33;;;;;;;;;;;;;;;17.12;85.71;98595.25;4194062;34;35115;-92
2023/05/15 08:07:23;;;;;;;;;;;;;;;16.62;87.76;98596.75;4194806;34;35132;-92
2023/05/15 08:10:11;;;;;;;;;;;;;;;16.91;88.83;98586.66;4209251;28;32757;-92
2023/05/15 08:12:44;;;;;;;;;;;;;;;17.34;87.58;98576.63;4203044;28;34098;-93
2023/05/15 08:15:13;;;;;;;;;;;;;;;16.99;85.64;98579.22;4196990;28;35165;-92
2023/05/15 08:18:10;;;;;;;;;;;;;;;17.48;87.86;98586.44;4200871;28;34193;-91
2023/05/15 08:20:38;;;;;;;;;;;;;;;17.77;85.03;98577.03;4183019;34;31800;-92
2023/05/15 08:23:58;;;;;;;;;;;;;;;18.06;82.80;98586.06;4193299;34;34270;-92
2023/05/15 08:26:40;;;;;;;;;;;;;;;18.23;79.87;98590.44;4201277;28;35157;-93
2023/05/15 08:29:11;;;;;;;;;;;;;;;19.24;80.48;98596.25;4195427;34;34391;-92
2023/05/15 08:31:39;;;;;;;;;;;;;;;19.95;77.45;98595.56;4211026;28;34471;-93
2023/05/15 08:34:07;;;;;;;;;;;;;;;19.57;74.36;98593.44;4206429;28;34581;-92
2023/05/15 08:36:40;;;;;;;;;;;;;;;19.74;73.05;98584.50;4183389;28;35276;-92
2023/05/15 08:39:08;;;;;;;;;;;;;;;20.48;73.39;98579.94;4189955;28;34758;-92
2023/05/15 08:41:50;;;;;;;;;;;;;;;19.94;68.80;98585.09;4171253;34;31907;-93
2023/05/15 08:44:21;;;;;;;;;;;;;;;20.93;70.70;98577.09;4204824;28;33805;-96
2023/05/15 08:46:58;;;;;;;;;;;;;;;20.67;70.79;98570.88;4196494;34;35198;-93
2023/05/15 08:49:46;;;;;;;;;;;;;;;20.81;68.15;98576.13;4206799;34;35800;-93
2023/05/15 08:52:14;;;;;;;;;;;;;;;20.74;70.19;98580.09;4206790;34;33635;-93
2023/05/15 08:54:52;;;;;;;;;;;;;;;20.79;68.46;98572.72;4207007;34;34700;-92
2023/05/15 08:57:52;;;;;;;;;;;;;;;21.06;69.44;98572.69;4196459;34;35754;-92
2023/05/15 09:00:21;;;;;;;;;;;;;;;20.29;71.45;98574.13;4207438;34;34732;-95
2023/05/15 09:02:49;;;;;;;;;;;;;;;20.71;66.79;98564.44;4195589;34;33504;-92
2023/05/15 09:05:20;;;;;;;;;;;;;;;20.52;68.87;98565.56;4207345;34;34138;-92
2023/05/15 09:07:50;;;;;;;;;;;;;;;20.95;66.22;98576.06;4210222;28;36108;-93
2023/05/15 09:10:17;;;;;;;;;;;;;;;20.35;67.39;98585.16;4206887;34;34841;-93
2023/05/15 09:12:52;;;;;;;;;;;;;;;20.57;66.65;98587.28;4204718;34;33625;-91
2023/05/15 09:15:21;;;;;;;;;;;;;;;20.66;69.32;98587.69;4193424;34;34183;-93
2023/05/15 09:18:01;;;;;;;;;;;;;;;20.67;68.63;98608.75;4201038;34;35039;-95
2023/05/15 09:20:32;;;;;;;;;;;;;;;20.23;70.20;98600.00;4208357;28;34939;-96
2023/05/15 09:23:05;;;;;;;;;;;;;;;20.18;71.96;98615.28;4187997;28;33752;-92
2023/05/15 09:25:51;;;;;;;;;;;;;;;20.04;71.26;98617.94;4186638;28;33951;-92
2023/05/15 09:28:37;;;;;;;;;;;;;;;20.38;71.15;98613.19;4207328;28;35804;-93
2023/05/15 09:31:06;;;;;;;;;;;;;;;20.62;72.27;98608.19;4192172;34;34666;-94
2023/05/15 09:33:37;;;;;;;;;;;;;;;20.39;75.39;98622.84;4203907;34;32610;-94
2023/05/15 09:36:28;;;;;;;;;;;;;;;20.78;70.89;98629.22;4203300;34;34195;-94
2023/05/15 09:39:16;;;;;;;;;;;;;;;20.17;66.41;98639.16;4203479;34;35235;-94
2023/05/15 09:41:45;;;;;;;;;;;;;;;19.98;67.17;98636.81;4185230;28;34900;-92
2023/05/15 09:44:24;;;;;;;;;;;;;;;20.79;68.99;98641.53;4181719;28;33174;-93
2023/05/15 09:46:52;;;;;;;;;;;;;;;20.23;65.09;98637.00;4166306;34;32719;-93
2023/05/15 09:49:21;;;;;;;;;;;;;;;20.70;65.71;98632.38;4178133;34;35085;-93
2023/05/15 09:51:49;;;;;;;;;;;;;;;20.85;64.52;98638.47;4167082;34;34673;-96
2023/05/15 09:54:18;;;;;;;;;;;;;;;20.87;65.12;98633.91;4177129;34;33265;-92
2023/05/15 09:56:46;;;;;;;;;;;;;;;20.29;69.25;98638.41;4190563;34;34224;-94
2023/05/15 09:59:30;;;;;;;;;;;;;;;20.95;66.63;98636.94;4177457;34;35097;-94
2023/05/15 10:02:01;;;;;;;;;;;;;;;21.05;65.93;98636.31;4189403;34;35421;-96
2023/05/15 10:04:38;;;;;;;;;;;;;;;20.83;63.78;98640.38;4190073;34;33202;-92
2023/05/15 10:07:06;;;;;;;;;;;;;;;20.28;64.02;98642.03;4189062;34;34264;-92
2023/05/15 10:09:40;;;;;;;;;;;;;;;19.98;67.55;98639.47;4176402;34;36267;-93
2023/05/15 10:12:07;;;;;;;;;;;;;;;20.36;66.84;98628.31;4187518;34;34483;-95
2023/05/15 10:14:36;;;;;;;;;;;;;;;20.50;67.78;98630.09;4188629;34;33432;-96
2023/05/15 10:17:35;;;;;;;;;;;;;;;19.77;70.06;98636.31;4187876;34;33842;-93
2023/05/15 10:20:05;;;;;;;;;;;;;;;20.65;70.10;98637.09;4187712;34;35023;-96
2023/05/15 10:22:37;;;;;;;;;;;;;;;20.87;67.45;98633.91;4165257;34;34667;-94
2023/05/15 10:25:31;;;;;;;;;;;;;;;20.80;68.38;98640.56;4186932;34;33771;-96
2023/05/15 10:28:00;;;;;;;;;;;;;;;21.17;67.18;98635.53;4184791;34;34040;-94
2023/05/15 10:30:28;;;;;;;;;;;;;;;21.42;65.58;98633.91;4175722;34;35359;-95
2023/05/15 10:32:56;;;;;;;;;;;;;;;21.18;64.37;98638.06;4188725;34;34665;-93
2023/05/15 10:35:25;;;;;;;;;;;;;;;21.26;64.71;98642.00;4188035;34;33431;-93
2023/05/15 10:37:56;;;;;;;;;;;;;;;22.09;64.37;98634.63;4186519;34;34409;-96
2023/05/15 10:40:24;;;;;;;;;;;;;;;21.74;63.42;98643.22;4185466;34;34772;-91
2023/05/15 10:42:55;;;;;;;;;;;;;;;21.78;63.23;98647.34;4185129;34;34658;-94
2023/05/15 10:45:24;;;;;;;;;;;;;;;22.15;61.74;98650.13;4175796;34;33694;-94
2023/05/15 10:47:51;;;;;;;;;;;;;;;21.52;64.42;98651.75;4161092;34;33184;-95
2023/05/15 10:50:19;;;;;;;;;;;;;;;21.83;62.34;98633.78;4172013;34;35947;-96
2023/05/15 10:52:52;;;;;;;;;;;;;;;21.86;62.38;98641.50;4184903;34;35503;-94
2023/05/15 10:55:19;;;;;;;;;;;;;;;22.54;63.69;98634.19;4183476;34;33336;-93
2023/05/15 10:57:50;;;;;;;;;;;;;;;22.56;64.50;98632.28;4170339;34;34386;-96
2023/05/15 11:00:24;;;;;;;;;;;;;;;22.55;66.85;98635.03;4182447;34;35278;-96
2023/05/15 11:02:55;;;;;;;;;;;;;;;21.65;65.67;98641.16;4182218;34;34843;-96
2023/05/15 11:05:23;;;;;;;;;;;;;;;20.89;67.21;98632.00;4170615;34;34381;-95
2023/05/15 11:08:10;;;;;;;;;;;;;;;21.62;65.97;98644.06;4182333;34;34276;-94
2023/05/15 11:10:40;;;;;;;;;;;;;;;21.94;61.68;98638.34;4182035;34;35196;-96
2023/05/15 11:13:08;;;;;;;;;;;;;;;21.91;65.10;98635.91;4181854;34;34503;-94
2023/05/15 11:15:45;;;;;;;;;;;;;;;22.21;62.47;98629.44;4180858;34;33365;-93
2023/05/15 11:18:13;;;;;;;;;;;;;;;22.45;60.94;98630.41;4179845;34;34203;-95
2023/05/15 11:20:53;;;;;;;;;;;;;;;23.10;61.33;98625.72;4167562;34;35019;-96
2023/05/15 11:23:22;;;;;;;;;;;;;;;21.83;63.91;98617.03;4179176;34;34423;-94
2023/05/15 11:25:53;;;;;;;;;;;;;;;22.79;59.89;98617.34;4166824;34;33540;-93
2023/05/15 11:28:22;;;;;;;;;;;;;;;22.75;62.49;98623.84;4168346;34;34193;-91
2023/05/15 11:30:50;;;;;;;;;;;;;;;23.08;58.86;98623.22;4167638;34;35276;-93
2023/05/15 11:33:19;;;;;;;;;;;;;;;22.94;57.86;98622.50;4145616;34;33319;-92
2023/05/15 11:35:47;;;;;;;;;;;;;;;23.15;55.21;98623.59;4166556;34;33716;-96
2023/05/15 11:38:16;;;;;;;;;;;;;;;23.16;56.46;98616.50;4178541;34;34214;-92
2023/05/15 11:40:54;;;;;;;;;;;;;;;23.42;56.50;98615.38;4178240;34;35190;-95
2023/05/15 11:43:25;;;;;;;;;;;;;;;23.33;55.36;98620.53;4178187;34;34372;-96
2023/05/15 11:45:57;;;;;;;;;;;;;;;21.86;62.31;98614.16;4178351;34;33351;-95
2023/05/15 11:48:32;;;;;;;;;;;;;;;22.14;60.85;98616.59;4178994;34;34118;-96
2023/05/15 11:51:00;;;;;;;;;;;;;;;22.68;60.02;98612.81;4165884;34;34977;-94
2023/05/15 11:53:29;;;;;;;;;;;;;;;22.05;56.67;98608.44;4166399;34;35158;-94
2023/05/15 11:55:57;;;;;;;;;;;;;;;22.13;60.20;98609.59;4165376;34;34016;-92
2023/05/15 11:58:25;;;;;;;;;;;;;;;22.12;62.06;98607.91;4151773;34;34187;-92
2023/05/15 12:00:54;;;;;;;;;;;;;;;21.94;63.08;98610.03;4162405;34;36186;-94
2023/05/15 12:03:22;;;;;;;;;;;;;;;22.19;58.64;98613.63;4175394;34;34773;-94
2023/05/15 12:05:52;;;;;;;;;;;;;;;22.24;59.21;98615.97;4163090;34;34365;-93
2023/05/15 12:08:25;;;;;;;;;;;;;;;21.87;59.95;98613.22;4163516;34;33814;-92
2023/05/15 12:10:53;;;;;;;;;;;;;;;22.06;60.21;98616.31;4162310;34;35670;-93
2023/05/15 12:13:21;;;;;;;;;;;;;;;22.48;58.95;98619.56;4162048;34;35102;-92
2023/05/15 12:15:50;;;;;;;;;;;;;;;22.07;57.99;98620.63;4174917;34;34380;-94
2023/05/15 12:18:18;;;;;;;;;;;;;;;22.28;60.31;98612.16;4162625;34;34587;-93
2023/05/15 12:20:45;;;;;;;;;;;;;;;21.78;62.16;98615.53;4162648;34;34771;-94
2023/05/15 12:23:14;;;;;;;;;;;;;;;21.30;65.26;98625.84;4162633;34;35268;-92
2023/05/15 12:25:43;;;;;;;;;;;;;;;21.13;65.49;98620.78;4174171;34;33517;-95
2023/05/15 12:28:12;;;;;;;;;;;;;;;21.88;66.13;98615.78;4164009;34;34741;-96
2023/05/15 12:30:55;;;;;;;;;;;;;;;22.57;62.00;98623.38;4166629;34;35385;-96
2023/05/15 12:33:27;;;;;;;;;;;;;;;22.01;59.08;98633.50;4156166;34;36128;-96
2023/05/15 12:35:55;;;;;;;;;;;;;;;22.11;57.04;98637.16;4163379;34;33828;-95
2023/05/15 12:38:28;;;;;;;;;;;;;;;22.04;57.13;98628.81;4165082;34;34931;-96
2023/05/15 12:40:56;;;;;;;;;;;;;;;21.83;59.83;98630.28;4175650;34;36019;-96
2023/05/15 12:43:26;;;;;;;;;;;;;;;21.22;58.52;98622.84;4164778;34;34515;-96
2023/05/15 12:45:55;;;;;;;;;;;;;;;21.85;58.38;98626.59;4164262;34;33615;-95
2023/05/15 12:48:30;;;;;;;;;;;;;;;21.71;60.02;98631.97;4167271;34;34614;-96
2023/05/15 12:51:05;;;;;;;;;;;;;;;22.72;57.17;98626.72;4167746;34;36038;-95
2023/05/15 12:53:35;;;;;;;;;;;;;;;22.70;55.66;98612.72;4177607;34;34385;-96
2023/05/15 12:56:15;;;;;;;;;;;;;;;22.94;56.16;98607.41;4167388;34;33528;-96
2023/05/15 12:58:53;;;;;;;;;;;;;;;23.37;55.62;98606.06;4177490;34;34531;-96
2023/05/15 13:01:23;;;;;;;;;;;;;;;22.87;56.58;98599.06;4167410;34;35433;-96
2023/05/15 13:03:53;;;;;;;;;;;;;;;23.65;55.11;98605.66;4153567;34;33905;-95
2023/05/15 13:06:21;;;;;;;;;;;;;;;23.09;56.74;98597.50;4177079;34;33553;-96
2023/05/15 13:08:50;;;;;;;;;;;;;;;23.38;57.15;98592.63;4178045;34;35024;-95
2023/05/15 13:11:19;;;;;;;;;;;;;;;23.27;56.28;98604.06;4177645;34;34962;-96
2023/05/15 13:13:48;;;;;;;;;;;;;;;22.74;54.99;98603.56;4167004;34;33262;-96
2023/05/15 13:16:22;;;;;;;;;;;;;;;22.67;58.41;98602.31;4167551;34;32490;-96